createdAt,value
2022-10-13T00:00:57.449Z,9.73
2022-10-13T00:01:59.049Z,9.90
2022-10-13T00:03:01.895Z,10.13
2022-10-13T00:04:03.495Z,10.07
2022-10-13T00:05:05.531Z,10.60
2022-10-13T00:06:09.793Z,10.00
2022-10-13T00:07:11.438Z,10.90
2022-10-13T00:08:15.574Z,9.65
2022-10-13T00:09:17.203Z,9.50
2022-10-13T00:10:18.940Z,9.52
2022-10-13T00:11:23.240Z,9.63
2022-10-13T00:12:24.877Z,10.05
2022-10-13T00:13:27.119Z,9.77
2022-10-13T00:14:28.719Z,10.27
2022-10-13T00:15:30.635Z,11.02
2022-10-13T00:16:33.047Z,9.80
2022-10-13T00:17:36.349Z,10.50
2022-10-13T00:18:38.424Z,9.60
2022-10-13T00:19:39.996Z,9.52
2022-10-13T00:20:46.852Z,9.85
2022-10-13T00:21:48.449Z,9.15
2022-10-13T00:22:50.139Z,9.82
2022-10-13T00:23:53.241Z,9.32
2022-10-13T00:24:55.983Z,9.18
2022-10-13T00:25:57.571Z,9.80
2022-10-13T00:26:59.163Z,9.95
2022-10-13T00:28:00.763Z,9.35
2022-10-13T00:29:02.447Z,10.23
2022-10-13T00:30:04.729Z,8.35
2022-10-13T00:31:35.629Z,9.63
2022-10-13T00:32:37.259Z,9.15
2022-10-13T00:33:38.887Z,9.20
2022-10-13T00:34:40.696Z,10.55
2022-10-13T00:35:45.626Z,9.68
2022-10-13T00:36:47.212Z,9.35
2022-10-13T00:37:48.808Z,9.75
2022-10-13T00:38:51.545Z,10.02
2022-10-13T00:39:53.272Z,9.63
2022-10-13T00:40:56.063Z,9.20
2022-10-13T00:41:58.832Z,8.88
2022-10-13T00:43:00.515Z,8.98
2022-10-13T00:44:07.238Z,9.77
2022-10-13T00:45:29.550Z,9.80
2022-10-13T00:46:33.568Z,8.80
2022-10-13T00:47:39.723Z,9.10
2022-10-13T00:48:43.078Z,8.35
2022-10-13T00:49:44.835Z,8.57
2022-10-13T00:50:47.461Z,8.35
2022-10-13T00:51:50.140Z,8.80
2022-10-13T00:52:54.269Z,8.60
2022-10-13T00:53:57.465Z,8.95
2022-10-13T00:54:59.958Z,9.52
2022-10-13T00:56:01.814Z,9.82
2022-10-13T00:57:05.898Z,8.63
2022-10-13T00:58:10.564Z,10.35
2022-10-13T00:59:22.957Z,10.73
2022-10-13T01:00:25.645Z,9.52
2022-10-13T01:01:27.292Z,9.48
2022-10-13T01:02:34.817Z,8.88
2022-10-13T01:03:37.311Z,10.55
2022-10-13T01:04:43.951Z,10.18
2022-10-13T01:05:46.440Z,9.45
2022-10-13T01:06:49.146Z,10.15
2022-10-13T01:07:52.750Z,10.45
2022-10-13T01:08:54.787Z,10.93
2022-10-13T01:09:56.573Z,10.13
2022-10-13T01:11:16.569Z,10.52
2022-10-13T01:12:26.636Z,9.40
2022-10-13T01:13:46.722Z,11.13
2022-10-13T01:15:34.081Z,10.70
2022-10-13T01:17:00.786Z,10.05
2022-10-13T01:18:08.995Z,10.10
2022-10-13T01:19:58.493Z,10.65
2022-10-13T01:21:18.299Z,10.48
2022-10-13T01:22:31.453Z,10.02
2022-10-13T01:23:39.099Z,11.10
2022-10-13T01:24:48.893Z,10.75
2022-10-13T01:26:14.592Z,10.73
2022-10-13T01:27:48.717Z,10.32
2022-10-13T01:29:33.006Z,10.90
2022-10-13T01:30:45.811Z,11.15
2022-10-13T01:32:06.087Z,10.50
2022-10-13T01:33:29.852Z,10.55
2022-10-13T01:34:44.340Z,10.07
2022-10-13T01:36:05.699Z,10.23
2022-10-13T01:37:32.700Z,9.93
2022-10-13T01:38:52.875Z,10.80
2022-10-13T01:40:12.415Z,8.75
2022-10-13T01:41:20.927Z,9.48
2022-10-13T01:42:28.566Z,10.93
2022-10-13T01:43:37.580Z,10.75
2022-10-13T01:44:43.354Z,9.40
2022-10-13T01:45:52.860Z,10.50
2022-10-13T01:46:55.040Z,9.73
2022-10-13T01:47:59.198Z,9.38
2022-10-13T01:49:05.937Z,9.48
2022-10-13T01:50:08.495Z,9.68
2022-10-13T01:51:18.069Z,9.70
2022-10-13T01:52:21.731Z,9.80
2022-10-13T01:53:24.404Z,9.48
2022-10-13T01:54:26.036Z,10.38
2022-10-13T01:55:28.902Z,9.52
2022-10-13T01:56:30.713Z,9.82
2022-10-13T01:57:36.102Z,9.93
2022-10-13T01:58:38.831Z,9.65
2022-10-13T01:59:40.523Z,9.13
2022-10-13T02:00:51.770Z,9.45
2022-10-13T02:02:17.927Z,9.75
2022-10-13T02:03:57.179Z,9.75
2022-10-13T02:05:13.936Z,10.35
2022-10-13T02:06:26.867Z,10.02
2022-10-13T02:07:48.467Z,10.27
2022-10-13T02:08:50.095Z,10.48
2022-10-13T02:10:03.342Z,10.20
2022-10-13T02:11:14.516Z,9.77
2022-10-13T02:12:27.303Z,8.88
2022-10-13T02:13:31.304Z,9.30
2022-10-13T02:14:34.884Z,10.73
2022-10-13T02:15:49.201Z,9.98
2022-10-13T02:16:53.639Z,9.52
2022-10-13T02:17:55.880Z,9.07
2022-10-13T02:18:58.541Z,9.77
2022-10-13T02:20:00.178Z,9.27
2022-10-13T02:21:03.289Z,9.55
2022-10-13T02:22:06.874Z,9.38
2022-10-13T02:23:13.661Z,9.55
2022-10-13T02:24:15.689Z,10.15
2022-10-13T02:25:17.373Z,10.15
2022-10-13T02:26:19.368Z,9.07
2022-10-13T02:27:22.305Z,9.13
2022-10-13T02:28:24.296Z,8.98
2022-10-13T02:29:26.385Z,9.43
2022-10-13T02:30:30.351Z,9.35
2022-10-13T02:31:31.939Z,9.55
2022-10-13T02:32:33.701Z,8.90
2022-10-13T02:33:35.496Z,10.63
2022-10-13T02:34:37.099Z,9.40
2022-10-13T02:35:39.255Z,9.80
2022-10-13T02:36:41.204Z,10.40
2022-10-13T02:37:42.842Z,10.23
2022-10-13T02:38:44.435Z,10.50
2022-10-13T02:39:46.212Z,9.45
2022-10-13T02:40:47.884Z,9.88
2022-10-13T02:41:50.604Z,9.75
2022-10-13T02:42:52.310Z,10.05
2022-10-13T02:43:53.901Z,10.30
2022-10-13T02:44:55.697Z,9.50
2022-10-13T02:45:57.405Z,9.43
2022-10-13T02:46:59.391Z,9.40
2022-10-13T02:48:01.026Z,8.80
2022-10-13T02:49:02.669Z,9.77
2022-10-13T02:50:05.116Z,9.43
2022-10-13T02:51:07.015Z,9.93
2022-10-13T02:52:08.655Z,10.00
2022-10-13T02:53:10.253Z,10.07
2022-10-13T02:54:11.865Z,9.63
2022-10-13T02:55:13.833Z,9.95
2022-10-13T02:56:15.980Z,9.35
2022-10-13T02:57:18.310Z,9.70
2022-10-13T02:58:19.915Z,9.75
2022-10-13T02:59:21.600Z,10.20
2022-10-13T03:00:23.339Z,10.25
2022-10-13T03:01:24.956Z,10.00
2022-10-13T03:02:27.824Z,10.10
2022-10-13T03:03:29.401Z,10.75
2022-10-13T03:04:31.091Z,11.70
2022-10-13T03:05:33.050Z,11.00
2022-10-13T03:06:34.834Z,12.40
2022-10-13T03:07:36.515Z,11.70
2022-10-13T03:08:38.318Z,11.98
2022-10-13T03:09:39.942Z,10.43
2022-10-13T03:10:41.546Z,11.70
2022-10-13T03:11:43.133Z,11.75
2022-10-13T03:12:44.752Z,12.00
2022-10-13T03:13:46.330Z,11.32
2022-10-13T03:14:47.932Z,11.20
2022-10-13T03:15:50.018Z,10.93
2022-10-13T03:16:51.606Z,11.70
2022-10-13T03:17:53.171Z,11.23
2022-10-13T03:18:54.839Z,10.98
2022-10-13T03:19:56.471Z,11.15
2022-10-13T03:21:04.291Z,11.02
2022-10-13T03:22:05.912Z,11.90
2022-10-13T03:23:07.901Z,11.90
2022-10-13T03:24:09.489Z,11.18
2022-10-13T03:25:11.115Z,11.77
2022-10-13T03:26:12.836Z,11.43
2022-10-13T03:27:14.451Z,11.10
2022-10-13T03:28:16.209Z,10.93
2022-10-13T03:29:18.502Z,11.68
2022-10-13T03:30:20.082Z,12.13
2022-10-13T03:31:21.713Z,12.75
2022-10-13T03:32:23.395Z,11.50
2022-10-13T03:33:25.149Z,11.60
2022-10-13T03:34:26.721Z,12.20
2022-10-13T03:35:28.363Z,11.95
2022-10-13T03:36:30.022Z,10.98
2022-10-13T03:37:31.688Z,11.95
2022-10-13T03:38:34.818Z,10.95
2022-10-13T03:39:36.420Z,11.38
2022-10-13T03:40:38.301Z,11.40
2022-10-13T03:41:40.327Z,10.15
2022-10-13T03:42:41.926Z,12.43
2022-10-13T03:43:44.599Z,12.05
2022-10-13T03:44:46.225Z,11.13
2022-10-13T03:45:58.729Z,12.43
2022-10-13T03:47:00.404Z,11.15
2022-10-13T03:48:02.011Z,10.80
2022-10-13T03:49:03.591Z,11.57
2022-10-13T03:50:06.531Z,11.35
2022-10-13T03:51:10.580Z,11.43
2022-10-13T03:52:12.208Z,11.13
2022-10-13T03:53:13.792Z,11.77
2022-10-13T03:54:15.479Z,12.10
2022-10-13T03:55:17.212Z,11.35
2022-10-13T03:56:21.534Z,12.32
2022-10-13T03:57:23.146Z,12.00
2022-10-13T03:58:25.451Z,11.88
2022-10-13T03:59:32.907Z,10.77
2022-10-13T04:00:37.322Z,12.35
2022-10-13T04:01:39.557Z,12.13
2022-10-13T04:02:41.193Z,11.40
2022-10-13T04:03:42.849Z,11.90
2022-10-13T04:04:44.472Z,11.65
2022-10-13T04:05:46.661Z,12.45
2022-10-13T04:06:48.251Z,11.13
2022-10-13T04:07:49.866Z,11.60
2022-10-13T04:08:52.014Z,11.10
2022-10-13T04:09:53.993Z,11.85
2022-10-13T04:11:04.241Z,12.18
2022-10-13T04:12:06.576Z,11.55
2022-10-13T04:13:08.259Z,12.40
2022-10-13T04:14:09.905Z,12.32
2022-10-13T04:15:11.621Z,11.98
2022-10-13T04:16:14.631Z,12.60
2022-10-13T04:17:16.224Z,13.48
2022-10-13T04:18:17.834Z,11.98
2022-10-13T04:19:19.481Z,12.15
2022-10-13T04:20:21.210Z,12.07
2022-10-13T04:21:23.800Z,12.45
2022-10-13T04:22:25.381Z,12.60
2022-10-13T04:23:27.221Z,11.85
2022-10-13T04:24:28.884Z,12.63
2022-10-13T04:25:30.535Z,13.18
2022-10-13T04:26:35.287Z,11.40
2022-10-13T04:27:39.079Z,12.20
2022-10-13T04:28:40.776Z,12.23
2022-10-13T04:29:42.561Z,12.40
2022-10-13T04:30:49.117Z,12.15
2022-10-13T04:31:51.098Z,12.65
2022-10-13T04:32:52.696Z,13.32
2022-10-13T04:33:54.540Z,11.60
2022-10-13T04:34:56.185Z,13.75
2022-10-13T04:35:58.184Z,12.80
2022-10-13T04:36:59.783Z,12.70
2022-10-13T04:38:01.427Z,13.70
2022-10-13T04:39:03.493Z,12.93
2022-10-13T04:40:05.959Z,12.88
2022-10-13T04:41:08.795Z,12.95
2022-10-13T04:42:10.441Z,12.55
2022-10-13T04:43:12.021Z,12.73
2022-10-13T04:44:13.670Z,13.30
2022-10-13T04:45:15.395Z,12.30
2022-10-13T04:46:19.480Z,13.80
2022-10-13T04:47:21.117Z,12.30
2022-10-13T04:48:22.925Z,13.38
2022-10-13T04:49:25.401Z,13.23
2022-10-13T04:50:27.085Z,12.35
2022-10-13T04:51:28.784Z,12.75
2022-10-13T04:52:30.382Z,12.25
2022-10-13T04:53:32.462Z,12.20
2022-10-13T04:54:34.120Z,12.43
2022-10-13T04:55:37.115Z,12.10
2022-10-13T04:56:38.729Z,12.43
2022-10-13T04:57:40.321Z,12.10
2022-10-13T04:58:43.649Z,10.85
2022-10-13T04:59:45.467Z,12.27
2022-10-13T05:00:47.612Z,11.43
2022-10-13T05:01:49.271Z,13.25
2022-10-13T05:02:50.989Z,12.75
2022-10-13T05:03:58.026Z,12.32
2022-10-13T05:04:59.677Z,12.85
2022-10-13T05:06:01.628Z,17.00
2022-10-13T05:07:17.600Z,12.68
2022-10-13T05:08:20.180Z,15.93
2022-10-13T05:09:22.406Z,15.52
2022-10-13T05:10:24.036Z,17.25
2022-10-13T05:11:26.868Z,14.90
2022-10-13T05:12:28.671Z,14.20
2022-10-13T05:13:30.481Z,13.27
2022-10-13T05:14:33.288Z,12.98
2022-10-13T05:15:34.950Z,14.75
2022-10-13T05:16:36.575Z,15.43
2022-10-13T05:17:38.222Z,15.38
2022-10-13T05:18:39.907Z,16.25
2022-10-13T05:19:41.535Z,37.50
2022-10-13T05:20:43.157Z,24.08
2022-10-13T05:21:44.909Z,18.52
2022-10-13T05:22:46.533Z,20.92
2022-10-13T05:23:48.634Z,17.33
2022-10-13T05:24:50.226Z,22.10
2022-10-13T05:25:52.161Z,24.92
2022-10-13T05:26:53.734Z,21.20
2022-10-13T05:27:55.315Z,18.83
2022-10-13T05:29:01.499Z,16.98
2022-10-13T05:30:03.494Z,14.40
2022-10-13T05:31:15.628Z,15.93
2022-10-13T05:32:17.481Z,14.05
2022-10-13T05:33:19.208Z,14.45
2022-10-13T05:34:20.783Z,16.60
2022-10-13T05:35:22.363Z,16.63
2022-10-13T05:36:26.694Z,16.23
2022-10-13T05:37:28.326Z,16.88
2022-10-13T05:38:29.899Z,17.67
2022-10-13T05:39:31.525Z,15.13
2022-10-13T05:40:33.521Z,16.27
2022-10-13T05:41:35.215Z,16.27
2022-10-13T05:42:37.130Z,15.82
2022-10-13T05:43:40.282Z,15.27
2022-10-13T05:44:41.899Z,15.23
2022-10-13T05:45:43.521Z,14.00
2022-10-13T05:46:45.361Z,15.18
2022-10-13T05:47:47.020Z,18.10
2022-10-13T05:48:48.744Z,17.38
2022-10-13T05:49:50.307Z,20.73
2022-10-13T05:50:52.317Z,18.70
2022-10-13T05:51:57.583Z,20.60
2022-10-13T05:52:59.191Z,18.50
2022-10-13T05:54:25.019Z,18.27
2022-10-13T05:55:26.684Z,18.80
2022-10-13T05:56:34.449Z,18.85
2022-10-13T05:57:41.188Z,17.98
2022-10-13T05:58:48.280Z,18.70
2022-10-13T05:59:55.903Z,20.60
2022-10-13T06:00:57.557Z,18.63
2022-10-13T06:02:01.044Z,18.63
2022-10-13T06:03:07.276Z,19.02
2022-10-13T06:04:18.688Z,17.48
2022-10-13T06:05:22.693Z,15.93
2022-10-13T06:06:29.117Z,20.83
2022-10-13T06:07:33.228Z,19.85
2022-10-13T06:08:35.374Z,17.38
2022-10-13T06:09:38.382Z,16.42
2022-10-13T06:10:41.411Z,15.85
2022-10-13T06:11:43.070Z,15.82
2022-10-13T06:12:44.725Z,14.40
2022-10-13T06:13:46.335Z,26.73
2022-10-13T06:14:48.549Z,16.98
2022-10-13T06:15:50.135Z,16.48
2022-10-13T06:16:51.738Z,16.27
2022-10-13T06:17:53.368Z,16.42
2022-10-13T06:18:54.999Z,16.05
2022-10-13T06:19:56.655Z,17.55
2022-10-13T06:20:58.460Z,15.52
2022-10-13T06:22:03.637Z,17.17
2022-10-13T06:23:05.473Z,15.70
2022-10-13T06:24:07.247Z,15.48
2022-10-13T06:25:09.347Z,15.52
2022-10-13T06:26:10.961Z,16.13
2022-10-13T06:27:12.570Z,16.00
2022-10-13T06:28:14.424Z,16.20
2022-10-13T06:29:16.179Z,16.13
2022-10-13T06:30:17.930Z,15.73
2022-10-13T06:31:20.096Z,15.05
2022-10-13T06:32:22.259Z,14.73
2022-10-13T06:33:25.318Z,15.73
2022-10-13T06:34:27.001Z,15.80
2022-10-13T06:35:28.592Z,16.63
2022-10-13T06:36:30.202Z,15.88
2022-10-13T06:37:31.874Z,16.00
2022-10-13T06:38:33.799Z,15.38
2022-10-13T06:39:35.671Z,16.05
2022-10-13T06:40:37.373Z,16.63
2022-10-13T06:41:38.971Z,18.20
2022-10-13T06:42:40.765Z,16.67
2022-10-13T06:43:42.467Z,14.65
2022-10-13T06:44:44.141Z,15.10
2022-10-13T06:45:45.735Z,16.17
2022-10-13T06:46:47.352Z,18.15
2022-10-13T06:47:48.983Z,16.40
2022-10-13T06:48:51.318Z,18.63
2022-10-13T06:49:52.933Z,16.65
2022-10-13T06:50:54.579Z,17.15
2022-10-13T06:51:56.186Z,17.55
2022-10-13T06:52:57.929Z,19.45
2022-10-13T06:53:59.557Z,19.60
2022-10-13T06:55:01.251Z,17.45
2022-10-13T06:56:06.798Z,18.35
2022-10-13T06:57:08.529Z,19.90
2022-10-13T06:58:11.089Z,17.35
2022-10-13T06:59:12.843Z,17.42
2022-10-13T07:00:14.650Z,17.48
2022-10-13T07:01:16.386Z,18.35
2022-10-13T07:02:18.257Z,17.27
2022-10-13T07:03:20.699Z,16.17
2022-10-13T07:04:23.028Z,18.17
2022-10-13T07:05:24.660Z,16.88
2022-10-13T07:06:26.401Z,17.63
2022-10-13T07:07:28.001Z,16.70
2022-10-13T07:08:30.315Z,16.20
2022-10-13T07:09:31.966Z,16.05
2022-10-13T07:10:33.709Z,15.82
2022-10-13T07:11:35.747Z,18.05
2022-10-13T07:12:37.348Z,16.20
2022-10-13T07:13:45.312Z,18.70
2022-10-13T07:14:48.894Z,17.58
2022-10-13T07:15:50.542Z,17.60
2022-10-13T07:16:52.147Z,16.67
2022-10-13T07:17:54.867Z,17.88
2022-10-13T07:18:56.535Z,17.92
2022-10-13T07:19:58.678Z,17.58
2022-10-13T07:21:02.643Z,17.63
2022-10-13T07:22:04.342Z,15.60
2022-10-13T07:23:05.958Z,17.65
2022-10-13T07:24:07.924Z,18.30
2022-10-13T07:25:09.939Z,17.45
2022-10-13T07:26:14.046Z,17.83
2022-10-13T07:27:15.652Z,17.13
2022-10-13T07:28:17.358Z,18.52
2022-10-13T07:29:19.132Z,18.38
2022-10-13T07:30:20.881Z,16.58
2022-10-13T07:31:22.521Z,18.85
2022-10-13T07:32:24.140Z,18.25
2022-10-13T07:33:25.738Z,18.23
2022-10-13T07:34:27.362Z,19.27
2022-10-13T07:35:30.861Z,18.23
2022-10-13T07:36:33.359Z,19.08
2022-10-13T07:37:35.152Z,19.00
2022-10-13T07:38:37.240Z,17.60
2022-10-13T07:39:38.822Z,18.45
2022-10-13T07:40:40.443Z,20.00
2022-10-13T07:41:42.184Z,18.65
2022-10-13T07:42:43.770Z,17.77
2022-10-13T07:43:45.579Z,20.00
2022-10-13T07:44:47.282Z,19.70
2022-10-13T07:45:48.866Z,18.98
2022-10-13T07:46:50.510Z,19.52
2022-10-13T07:47:52.135Z,16.65
2022-10-13T07:48:54.415Z,17.50
2022-10-13T07:49:55.995Z,18.13
2022-10-13T07:50:58.185Z,18.58
2022-10-13T07:51:59.986Z,17.70
2022-10-13T07:53:02.207Z,18.92
2022-10-13T07:54:03.921Z,17.60
2022-10-13T07:55:06.448Z,16.83
2022-10-13T07:56:10.438Z,16.67
2022-10-13T07:57:12.615Z,17.38
2022-10-13T07:58:14.440Z,17.80
2022-10-13T07:59:16.028Z,17.65
2022-10-13T08:00:18.016Z,19.20
2022-10-13T08:01:19.690Z,18.95
2022-10-13T08:02:21.800Z,20.15
2022-10-13T08:03:23.583Z,19.20
2022-10-13T08:04:25.480Z,19.67
2022-10-13T08:05:27.092Z,18.95
2022-10-13T08:06:28.894Z,18.77
2022-10-13T08:07:30.573Z,19.67
2022-10-13T08:08:32.488Z,19.85
2022-10-13T08:09:34.543Z,19.13
2022-10-13T08:10:36.997Z,19.55
2022-10-13T08:11:38.885Z,18.85
2022-10-13T08:12:40.631Z,19.15
2022-10-13T08:13:42.447Z,19.00
2022-10-13T08:14:44.252Z,19.20
2022-10-13T08:15:46.534Z,20.55
2022-10-13T08:16:50.080Z,20.15
2022-10-13T08:17:54.676Z,20.30
2022-10-13T08:18:58.167Z,19.73
2022-10-13T08:19:59.811Z,19.38
2022-10-13T08:22:28.247Z,19.63
2022-10-13T08:23:31.304Z,19.35
2022-10-13T08:24:32.898Z,19.15
2022-10-13T08:25:42.347Z,19.83
2022-10-13T08:26:45.963Z,19.08
2022-10-13T08:27:51.649Z,19.38
2022-10-13T08:29:16.771Z,19.10
2022-10-13T08:30:16.654Z,19.52
2022-10-13T08:31:19.145Z,21.90
2022-10-13T08:32:23.768Z,19.92
2022-10-13T08:33:26.748Z,20.27
2022-10-13T08:34:28.623Z,19.55
2022-10-13T08:35:34.856Z,19.50
2022-10-13T08:36:37.321Z,19.70
2022-10-13T08:37:39.256Z,17.70
2022-10-13T08:38:41.538Z,20.85
2022-10-13T08:39:43.873Z,17.88
2022-10-13T08:40:51.730Z,18.63
2022-10-13T08:41:55.314Z,18.20
2022-10-13T08:43:00.335Z,18.08
2022-10-13T08:44:59.279Z,17.38
2022-10-13T08:45:46.935Z,16.05
2022-10-13T08:46:51.554Z,16.02
2022-10-13T08:47:59.994Z,15.63
2022-10-13T08:49:02.229Z,15.02
2022-10-13T08:50:12.400Z,14.85
2022-10-13T08:51:15.951Z,14.77
2022-10-13T08:52:26.814Z,15.98
2022-10-13T08:53:40.519Z,15.50
2022-10-13T08:54:42.145Z,14.95
2022-10-13T08:55:55.652Z,14.85
2022-10-13T08:56:57.488Z,14.10
2022-10-13T08:58:00.567Z,13.88
2022-10-13T08:59:04.489Z,15.90
2022-10-13T09:00:10.162Z,14.32
2022-10-13T09:01:17.771Z,14.48
2022-10-13T09:02:31.631Z,13.65
2022-10-13T09:03:51.104Z,14.50
2022-10-13T09:04:53.422Z,13.13
2022-10-13T09:06:12.773Z,13.55
2022-10-13T09:07:35.072Z,13.50
2022-10-13T09:08:43.956Z,14.23
2022-10-13T09:09:49.488Z,13.98
2022-10-13T09:10:52.166Z,13.23
2022-10-13T09:11:53.808Z,14.82
2022-10-13T09:12:56.276Z,13.35
2022-10-13T09:14:22.940Z,13.82
2022-10-13T09:15:24.561Z,11.82
2022-10-13T09:16:28.701Z,12.13
2022-10-13T09:17:30.690Z,13.27
2022-10-13T09:18:33.250Z,12.57
2022-10-13T09:19:36.531Z,12.45
2022-10-13T09:20:38.641Z,12.77
2022-10-13T09:21:40.277Z,12.70
2022-10-13T09:22:42.442Z,12.68
2022-10-13T09:23:44.107Z,11.57
2022-10-13T09:24:45.821Z,12.10
2022-10-13T09:25:50.118Z,11.75
2022-10-13T09:27:21.718Z,12.30
2022-10-13T09:28:29.701Z,12.32
2022-10-13T09:29:31.454Z,11.35
2022-10-13T09:30:34.977Z,10.97
2022-10-13T09:31:37.469Z,12.53
2022-10-13T09:32:40.656Z,11.70
2022-10-13T09:33:42.890Z,10.77
2022-10-13T09:34:45.277Z,11.60
2022-10-13T09:36:07.268Z,11.17
2022-10-13T09:37:20.995Z,11.23
2022-10-13T09:38:25.285Z,10.80
2022-10-13T09:39:27.959Z,11.03
2022-10-13T09:40:32.694Z,10.90
2022-10-13T09:41:35.889Z,10.47
2022-10-13T09:42:38.086Z,10.03
2022-10-13T09:43:42.837Z,10.30
2022-10-13T09:44:45.454Z,10.17
2022-10-13T09:45:47.178Z,9.43
2022-10-13T09:46:55.314Z,10.67
2022-10-13T09:48:07.028Z,10.20
2022-10-13T09:49:39.340Z,10.30
2022-10-13T09:50:49.231Z,9.47
2022-10-13T09:51:50.826Z,9.40
2022-10-13T09:52:53.022Z,10.20
2022-10-13T09:53:55.030Z,10.30
2022-10-13T09:54:59.015Z,10.23
2022-10-13T09:56:20.305Z,10.87
2022-10-13T09:57:45.142Z,10.73
2022-10-13T09:58:51.097Z,10.37
2022-10-13T10:00:14.664Z,10.73
2022-10-13T10:01:26.255Z,11.33
2022-10-13T10:02:49.159Z,10.60
2022-10-13T10:03:51.401Z,10.33
2022-10-13T10:04:54.941Z,11.07
2022-10-13T10:06:02.008Z,9.60
2022-10-13T10:07:12.751Z,11.77
2022-10-13T10:08:28.873Z,12.20
2022-10-13T10:09:40.879Z,11.07
2022-10-13T10:10:42.537Z,10.10
2022-10-13T10:11:47.607Z,10.27
2022-10-13T10:12:49.615Z,10.13
2022-10-13T10:13:52.638Z,9.50
2022-10-13T10:14:54.585Z,9.93
2022-10-13T10:16:03.173Z,10.40
2022-10-13T10:17:34.038Z,9.30
2022-10-13T10:18:45.459Z,9.60
2022-10-13T10:20:10.578Z,8.67
2022-10-13T10:21:30.244Z,9.17
2022-10-13T10:23:01.599Z,10.17
2022-10-13T10:24:24.963Z,9.70
2022-10-13T10:25:39.036Z,9.20
2022-10-13T10:26:59.721Z,10.07
2022-10-13T10:28:09.929Z,9.20
2022-10-13T10:29:17.719Z,8.40
2022-10-13T10:30:20.702Z,9.27
2022-10-13T10:31:43.692Z,8.63
2022-10-13T10:33:13.561Z,9.73
2022-10-13T10:34:30.917Z,10.07
2022-10-13T10:35:52.979Z,9.77
2022-10-13T10:37:10.562Z,9.87
2022-10-13T10:38:31.947Z,9.97
2022-10-13T10:40:12.876Z,10.00
2022-10-13T10:41:38.724Z,9.47
2022-10-13T10:43:08.570Z,8.90
2022-10-13T10:44:17.252Z,8.87
2022-10-13T10:45:41.924Z,8.03
2022-10-13T10:46:49.009Z,7.67
2022-10-13T10:47:59.202Z,8.77
2022-10-13T10:49:04.683Z,9.30
2022-10-13T10:50:08.893Z,7.97
2022-10-13T10:51:12.104Z,7.77
2022-10-13T10:52:38.002Z,8.50
2022-10-13T10:53:55.857Z,8.77
2022-10-13T10:55:17.323Z,10.40
2022-10-13T10:56:48.103Z,8.37
2022-10-13T10:58:12.232Z,8.50
2022-10-13T10:59:29.282Z,8.73
2022-10-13T11:00:37.294Z,7.90
2022-10-13T11:02:03.958Z,9.60
2022-10-13T11:03:54.614Z,7.50
2022-10-13T11:05:01.922Z,7.50
2022-10-13T11:06:22.932Z,7.57
2022-10-13T11:07:24.504Z,7.70
2022-10-13T11:08:28.601Z,7.50
2022-10-13T11:09:42.426Z,7.43
2022-10-13T11:10:44.040Z,7.97
2022-10-13T11:11:45.652Z,7.47
2022-10-13T11:12:53.354Z,7.03
2022-10-13T11:14:20.158Z,7.10
2022-10-13T11:15:26.136Z,6.73
2022-10-13T11:16:32.441Z,6.47
2022-10-13T11:17:38.456Z,6.93
2022-10-13T11:18:59.105Z,6.77
2022-10-13T11:20:00.791Z,6.30
2022-10-13T11:21:02.430Z,6.97
2022-10-13T11:22:03.977Z,7.10
2022-10-13T11:23:05.818Z,6.80
2022-10-13T11:24:33.169Z,6.30
2022-10-13T11:25:42.741Z,5.53
2022-10-13T11:26:44.449Z,6.43
2022-10-13T11:27:46.121Z,6.57
2022-10-13T11:28:48.324Z,5.97
2022-10-13T11:29:58.587Z,6.00
2022-10-13T11:31:15.310Z,6.10
2022-10-13T11:32:46.125Z,6.20
2022-10-13T11:33:50.766Z,6.13
2022-10-13T11:34:59.351Z,5.70
2022-10-13T11:36:39.349Z,6.03
2022-10-13T11:38:00.859Z,6.03
2022-10-13T11:39:28.187Z,5.30
2022-10-13T11:40:33.728Z,6.27
2022-10-13T11:41:44.930Z,5.50
2022-10-13T11:43:05.267Z,5.20
2022-10-13T11:44:31.100Z,5.00
2022-10-13T11:45:40.787Z,5.60
2022-10-13T11:47:02.842Z,5.10
2022-10-13T11:48:10.888Z,4.83
2022-10-13T11:49:31.119Z,6.10
2022-10-13T11:50:51.287Z,5.03
2022-10-13T11:52:25.564Z,5.13
2022-10-13T11:53:43.526Z,5.17
2022-10-13T11:54:51.814Z,5.77
2022-10-13T11:55:58.440Z,5.00
2022-10-13T11:57:00.223Z,5.90
2022-10-13T11:58:23.212Z,6.90
2022-10-13T11:59:34.300Z,5.70
2022-10-13T12:00:35.976Z,5.67
2022-10-13T12:01:44.054Z,6.30
2022-10-13T12:02:53.500Z,5.50
2022-10-13T12:03:55.246Z,5.37
2022-10-13T12:05:20.195Z,5.83
2022-10-13T12:06:33.233Z,5.37
2022-10-13T12:07:38.826Z,6.30
2022-10-13T12:08:40.548Z,5.47
2022-10-13T12:09:54.285Z,6.67
2022-10-13T12:10:58.379Z,5.70
2022-10-13T12:12:21.487Z,5.80
2022-10-13T12:13:26.851Z,6.43
2022-10-13T12:14:43.050Z,5.80
2022-10-13T12:15:44.856Z,5.80
2022-10-13T12:16:57.835Z,5.73
2022-10-13T12:17:59.805Z,5.80
2022-10-13T12:19:09.630Z,5.83
2022-10-13T12:20:23.334Z,5.83
2022-10-13T12:21:25.085Z,6.30
2022-10-13T12:22:28.604Z,6.00
2022-10-13T12:23:32.294Z,5.70
2022-10-13T12:24:33.878Z,6.20
2022-10-13T12:25:36.171Z,5.90
2022-10-13T12:26:37.801Z,6.27
2022-10-13T12:27:49.175Z,5.40
2022-10-13T12:28:51.299Z,5.83
2022-10-13T12:29:53.349Z,5.87
2022-10-13T12:30:59.640Z,5.77
2022-10-13T12:32:01.250Z,5.70
2022-10-13T12:33:04.800Z,5.40
2022-10-13T12:34:21.396Z,5.20
2022-10-13T12:35:26.221Z,5.93
2022-10-13T12:36:34.240Z,5.60
2022-10-13T12:37:37.198Z,7.07
2022-10-13T12:38:43.354Z,6.00
2022-10-13T12:39:45.208Z,5.90
2022-10-13T12:40:49.800Z,6.97
2022-10-13T12:41:52.755Z,6.80
2022-10-13T12:42:54.640Z,6.20
2022-10-13T12:43:59.878Z,7.07
2022-10-13T12:45:05.974Z,6.70
2022-10-13T12:46:09.361Z,6.03
2022-10-13T12:47:47.328Z,5.63
2022-10-13T12:48:51.200Z,6.80
2022-10-13T12:49:55.778Z,6.30
2022-10-13T12:51:08.968Z,6.33
2022-10-13T12:52:27.359Z,4.90
2022-10-13T12:53:29.266Z,4.87
2022-10-13T12:54:34.149Z,5.60
2022-10-13T12:56:00.633Z,5.77
2022-10-13T12:57:16.050Z,5.43
2022-10-13T12:58:27.958Z,5.50
2022-10-13T12:59:30.752Z,4.87
2022-10-13T13:00:32.467Z,5.33
2022-10-13T13:01:35.661Z,5.70
2022-10-13T13:02:37.282Z,5.67
2022-10-13T13:03:40.956Z,6.47
2022-10-13T13:04:43.752Z,6.77
2022-10-13T13:05:50.818Z,5.50
2022-10-13T13:06:56.948Z,5.50
2022-10-13T13:07:59.326Z,6.30
2022-10-13T13:09:22.992Z,6.00
2022-10-13T13:10:24.633Z,6.20
2022-10-13T13:11:37.903Z,5.13
2022-10-13T13:12:39.910Z,5.80
2022-10-13T13:13:41.551Z,5.77
2022-10-13T13:14:47.343Z,6.30
2022-10-13T13:15:49.487Z,5.90
2022-10-13T13:17:13.130Z,6.60
2022-10-13T13:18:27.059Z,5.50
2022-10-13T13:19:32.700Z,5.27
2022-10-13T13:20:37.617Z,5.27
2022-10-13T13:21:39.205Z,6.30
2022-10-13T13:22:40.842Z,5.53
2022-10-13T13:23:49.557Z,5.97
2022-10-13T13:24:54.731Z,6.30
2022-10-13T13:26:03.568Z,6.33
2022-10-13T13:27:11.770Z,7.13
2022-10-13T13:28:15.364Z,6.07
2022-10-13T13:29:17.078Z,5.70
2022-10-13T13:30:22.089Z,6.77
2022-10-13T13:31:25.663Z,6.43
2022-10-13T13:32:28.371Z,6.50
2022-10-13T13:33:30.007Z,7.07
2022-10-13T13:34:31.618Z,6.47
2022-10-13T13:35:33.931Z,7.13
2022-10-13T13:36:35.554Z,7.20
2022-10-13T13:37:44.457Z,7.10
2022-10-13T13:38:46.209Z,7.07
2022-10-13T13:39:47.992Z,6.80
2022-10-13T13:40:49.806Z,7.67
2022-10-13T13:41:51.392Z,7.63
2022-10-13T13:42:53.822Z,7.93
2022-10-13T13:43:55.514Z,8.23
2022-10-13T13:44:57.323Z,8.23
2022-10-13T13:45:58.954Z,7.40
2022-10-13T13:47:00.572Z,8.27
2022-10-13T13:48:02.275Z,7.70
2022-10-13T13:49:03.960Z,8.77
2022-10-13T13:50:19.411Z,7.90
2022-10-13T13:51:20.971Z,8.03
2022-10-13T13:52:24.066Z,7.73
2022-10-13T13:53:25.697Z,7.97
2022-10-13T13:54:27.285Z,7.30
2022-10-13T13:55:30.053Z,7.93
2022-10-13T13:56:31.737Z,7.50
2022-10-13T13:57:33.343Z,8.40
2022-10-13T13:58:35.699Z,7.87
2022-10-13T13:59:38.350Z,8.07
2022-10-13T14:00:40.003Z,7.87
2022-10-13T14:01:41.721Z,7.97
2022-10-13T14:02:44.134Z,8.00
2022-10-13T14:03:45.863Z,7.67
2022-10-13T14:04:47.688Z,8.60
2022-10-13T14:05:49.388Z,8.20
2022-10-13T14:06:51.987Z,7.43
2022-10-13T14:07:55.961Z,7.70
2022-10-13T14:08:57.556Z,7.10
2022-10-13T14:10:01.820Z,7.30
2022-10-13T14:11:07.390Z,8.63
2022-10-13T14:12:09.340Z,8.00
2022-10-13T14:13:10.994Z,7.33
2022-10-13T14:14:12.983Z,7.60
2022-10-13T14:15:14.683Z,7.37
2022-10-13T14:16:20.667Z,7.57
2022-10-13T14:17:22.732Z,8.00
2022-10-13T14:18:24.866Z,8.30
2022-10-13T14:19:27.026Z,8.17
2022-10-13T14:20:28.695Z,7.57
2022-10-13T14:21:30.357Z,7.90